Portada
METAR-TAF:

METAR-TAF

Aeroports :

Yap, Micronèsia

latitud: 09-29N, longitud: 138-05E, altitud: 28 m

Observació

L'informe es va fer fa 22 minuts, a les 18:55 UTC
Vent 3 kt amb direcció variable
Temperatura 26°C
Humitat 89%
Pressió 1009 hPa
Visibilitat: 19.3 km
Escasses núvols a una alçada de 1600 ft
Cel ennuvolat a una alçada de 13000 ft
Cel cobert a una alçada de 30000 ft

METAR: PTYA 161855Z VRB03KT 12SM FEW016 BKN130 OVC300 26/24 A2981 RMK SLP095 T02550243

Hora: 05:17 (19:17 UTC)

Pronòstic

L'informe es va fer fa 1 hora i 43 minuts, a les 17:34 UTC
Pronòstic vàlid del 16 a les 18 UTC al 17 a les 18 UTC
Vent 6 kt amb direcció variable
Visibilitat: 10 km
Escasses núvols a una alçada de 1600 ft
Cel ennuvolat a una alçada de 5000 ft
Cel cobert a una alçada de 12000 ft
xàfecs en les proximitats

TAF: PTYA 161734Z 1618/1718 VRB06KT P6SM VCSH FEW016 BKN050 OVC120

Observacions i pronòstics meteorològics de més de 4000 aeroports (METAR i TAF).

Les estacions disponibles són els punts grocs i vermells al mapa.

Posi el ratolí al punt desitjat per veure el nom de l'estació.

Feu clic per veure les observacions i els pronòstics meteorològics.

Per canviar el mapa: feu clic els botons verds amb una creu de color negre per apropar; al botó verd amb un guió per allunyar la imatge; o en les fletxes verdes per a mapes adjacents.


METAR-TAF: